sensor_id;sensor_type;location;lat;lon;timestamp;pressure;altitude;pressure_sealevel;temperature
81399;BMP280;70853;50.074;10.224;2023-12-07T00:02:08;98726.59;;;2.03
81399;BMP280;70853;50.074;10.224;2023-12-07T00:04:33;98739.84;;;2.08
81399;BMP280;70853;50.074;10.224;2023-12-07T00:06:59;98733.22;;;1.98
81399;BMP280;70853;50.074;10.224;2023-12-07T00:09:25;98740.47;;;2.03
81399;BMP280;70853;50.074;10.224;2023-12-07T00:11:50;98755.63;;;2.08
81399;BMP280;70853;50.074;10.224;2023-12-07T00:14:16;98749.63;;;2.08
81399;BMP280;70853;50.074;10.224;2023-12-07T00:16:41;98753.28;;;2.11
81399;BMP280;70853;50.074;10.224;2023-12-07T00:19:08;98755.16;;;2.10
81399;BMP280;70853;50.074;10.224;2023-12-07T00:21:33;98756.25;;;2.03
81399;BMP280;70853;50.074;10.224;2023-12-07T00:24:00;98758.72;;;2.07
81399;BMP280;70853;50.074;10.224;2023-12-07T00:26:26;98765.69;;;1.95
81399;BMP280;70853;50.074;10.224;2023-12-07T00:28:52;98761.25;;;2.01
81399;BMP280;70853;50.074;10.224;2023-12-07T00:31:17;98762.25;;;2.04
81399;BMP280;70853;50.074;10.224;2023-12-07T00:33:43;98765.88;;;2.06
81399;BMP280;70853;50.074;10.224;2023-12-07T00:36:11;98764.59;;;2.02
81399;BMP280;70853;50.074;10.224;2023-12-07T00:38:38;98761.06;;;2.05
81399;BMP280;70853;50.074;10.224;2023-12-07T00:41:03;98767.50;;;2.04
81399;BMP280;70853;50.074;10.224;2023-12-07T00:43:29;98771.41;;;2.08
81399;BMP280;70853;50.074;10.224;2023-12-07T00:45:54;98760.78;;;2.03
81399;BMP280;70853;50.074;10.224;2023-12-07T00:48:20;98770.13;;;2.04
81399;BMP280;70853;50.074;10.224;2023-12-07T00:50:45;98778.31;;;1.91
81399;BMP280;70853;50.074;10.224;2023-12-07T00:53:12;98775.84;;;1.88
81399;BMP280;70853;50.074;10.224;2023-12-07T00:55:38;98778.03;;;1.89
81399;BMP280;70853;50.074;10.224;2023-12-07T00:58:05;98787.56;;;1.87
81399;BMP280;70853;50.074;10.224;2023-12-07T01:00:31;98782.78;;;1.85
81399;BMP280;70853;50.074;10.224;2023-12-07T01:02:56;98775.84;;;1.73
81399;BMP280;70853;50.074;10.224;2023-12-07T01:05:22;98775.84;;;1.73
81399;BMP280;70853;50.074;10.224;2023-12-07T01:07:48;98787.00;;;1.68
81399;BMP280;70853;50.074;10.224;2023-12-07T01:10:13;98790.78;;;1.67
81399;BMP280;70853;50.074;10.224;2023-12-07T01:12:39;98779.38;;;1.55
81399;BMP280;70853;50.074;10.224;2023-12-07T01:15:05;98795.25;;;1.61
81399;BMP280;70853;50.074;10.224;2023-12-07T01:17:31;98797.88;;;1.61
81399;BMP280;70853;50.074;10.224;2023-12-07T01:19:56;98801.84;;;1.56
81399;BMP280;70853;50.074;10.224;2023-12-07T01:22:21;98806.94;;;1.60
81399;BMP280;70853;50.074;10.224;2023-12-07T01:24:47;98810.19;;;1.55
81399;BMP280;70853;50.074;10.224;2023-12-07T01:27:13;98809.28;;;1.58
81399;BMP280;70853;50.074;10.224;2023-12-07T01:29:38;98808.56;;;1.57
81399;BMP280;70853;50.074;10.224;2023-12-07T01:32:04;98808.72;;;1.54
81399;BMP280;70853;50.074;10.224;2023-12-07T01:34:31;98819.69;;;1.52
81399;BMP280;70853;50.074;10.224;2023-12-07T01:36:58;98817.13;;;1.43
81399;BMP280;70853;50.074;10.224;2023-12-07T01:39:23;98815.22;;;1.44
81399;BMP280;70853;50.074;10.224;2023-12-07T01:41:50;98820.59;;;1.49
81399;BMP280;70853;50.074;10.224;2023-12-07T01:44:16;98816.56;;;1.39
81399;BMP280;70853;50.074;10.224;2023-12-07T01:46:42;98829.38;;;1.46
81399;BMP280;70853;50.074;10.224;2023-12-07T01:49:08;98839.88;;;1.46
81399;BMP280;70853;50.074;10.224;2023-12-07T01:51:34;98847.03;;;1.46
81399;BMP280;70853;50.074;10.224;2023-12-07T01:54:01;98833.91;;;1.46
81399;BMP280;70853;50.074;10.224;2023-12-07T01:56:27;98845.88;;;1.47
81399;BMP280;70853;50.074;10.224;2023-12-07T01:58:52;98835.91;;;1.51
81399;BMP280;70853;50.074;10.224;2023-12-07T02:01:18;98841.91;;;1.51
81399;BMP280;70853;50.074;10.224;2023-12-07T02:03:44;98815.78;;;1.33
81399;BMP280;70853;50.074;10.224;2023-12-07T02:06:09;98840.44;;;1.50
81399;BMP280;70853;50.074;10.224;2023-12-07T02:08:36;98839.38;;;1.57
81399;BMP280;70853;50.074;10.224;2023-12-07T02:11:07;98847.28;;;1.57
81399;BMP280;70853;50.074;10.224;2023-12-07T02:13:36;98839.38;;;1.57
81399;BMP280;70853;50.074;10.224;2023-12-07T02:16:07;98850.78;;;1.54
81399;BMP280;70853;50.074;10.224;2023-12-07T02:18:55;98838.09;;;1.52
81399;BMP280;70853;50.074;10.224;2023-12-07T02:21:30;98842.34;;;1.50
81399;BMP280;70853;50.074;10.224;2023-12-07T02:23:58;98836.63;;;1.51
81399;BMP280;70853;50.074;10.224;2023-12-07T02:26:31;98841.16;;;1.51
81399;BMP280;70853;50.074;10.224;2023-12-07T02:28:57;98839.59;;;1.44
81399;BMP280;70853;50.074;10.224;2023-12-07T02:31:22;98840.03;;;1.43
81399;BMP280;70853;50.074;10.224;2023-12-07T02:33:48;98836.78;;;1.33
81399;BMP280;70853;50.074;10.224;2023-12-07T02:36:15;98838.50;;;1.36
81399;BMP280;70853;50.074;10.224;2023-12-07T02:38:43;98832.00;;;1.46
81399;BMP280;70853;50.074;10.224;2023-12-07T02:41:09;98844.28;;;1.40
81399;BMP280;70853;50.074;10.224;2023-12-07T02:43:36;98853.19;;;1.43
81399;BMP280;70853;50.074;10.224;2023-12-07T02:46:02;98848.03;;;1.33
81399;BMP280;70853;50.074;10.224;2023-12-07T02:48:27;98851.44;;;1.25
81399;BMP280;70853;50.074;10.224;2023-12-07T02:50:54;98857.69;;;1.27
81399;BMP280;70853;50.074;10.224;2023-12-07T02:53:20;98849.69;;;1.22
81399;BMP280;70853;50.074;10.224;2023-12-07T02:55:46;98849.41;;;1.20
81399;BMP280;70853;50.074;10.224;2023-12-07T02:58:11;98858.19;;;1.17
81399;BMP280;70853;50.074;10.224;2023-12-07T03:00:37;98858.19;;;1.17
81399;BMP280;70853;50.074;10.224;2023-12-07T03:03:02;98854.88;;;1.07
81399;BMP280;70853;50.074;10.224;2023-12-07T03:05:28;98850.13;;;0.87
81399;BMP280;70853;50.074;10.224;2023-12-07T03:07:53;98856.25;;;0.93
81399;BMP280;70853;50.074;10.224;2023-12-07T03:10:19;98845.44;;;0.91
81399;BMP280;70853;50.074;10.224;2023-12-07T03:12:44;98857.53;;;0.98
81399;BMP280;70853;50.074;10.224;2023-12-07T03:15:10;98859.72;;;0.99
81399;BMP280;70853;50.074;10.224;2023-12-07T03:17:36;98866.00;;;1.02
81399;BMP280;70853;50.074;10.224;2023-12-07T03:20:03;98862.03;;;1.07
81399;BMP280;70853;50.074;10.224;2023-12-07T03:22:29;98865.03;;;1.14
81399;BMP280;70853;50.074;10.224;2023-12-07T03:24:55;98860.22;;;1.13
81399;BMP280;70853;50.074;10.224;2023-12-07T03:27:20;98865.34;;;1.16
81399;BMP280;70853;50.074;10.224;2023-12-07T03:29:46;98861.09;;;1.19
81399;BMP280;70853;50.074;10.224;2023-12-07T03:32:11;98868.25;;;1.18
81399;BMP280;70853;50.074;10.224;2023-12-07T03:34:37;98865.94;;;1.11
81399;BMP280;70853;50.074;10.224;2023-12-07T03:37:03;98869.69;;;1.19
81399;BMP280;70853;50.074;10.224;2023-12-07T03:39:28;98865.78;;;1.15
81399;BMP280;70853;50.074;10.224;2023-12-07T03:41:55;98870.88;;;1.18
81399;BMP280;70853;50.074;10.224;2023-12-07T03:44:20;98863.72;;;1.19
81399;BMP280;70853;50.074;10.224;2023-12-07T03:46:46;98858.63;;;1.15
81399;BMP280;70853;50.074;10.224;2023-12-07T03:49:11;98867.06;;;1.19
81399;BMP280;70853;50.074;10.224;2023-12-07T03:51:37;98865.63;;;1.18
81399;BMP280;70853;50.074;10.224;2023-12-07T03:54:03;98865.34;;;1.16
81399;BMP280;70853;50.074;10.224;2023-12-07T03:56:30;98864.47;;;1.10
81399;BMP280;70853;50.074;10.224;2023-12-07T03:58:56;98874.16;;;1.04
81399;BMP280;70853;50.074;10.224;2023-12-07T04:01:26;98873.28;;;1.07
81399;BMP280;70853;50.074;10.224;2023-12-07T04:03:53;98877.63;;;1.10
81399;BMP280;70853;50.074;10.224;2023-12-07T04:06:20;98883.44;;;1.14
81399;BMP280;70853;50.074;10.224;2023-12-07T04:08:46;98882.53;;;1.17
81399;BMP280;70853;50.074;10.224;2023-12-07T04:11:12;98877.63;;;1.10
81399;BMP280;70853;50.074;10.224;2023-12-07T04:13:39;98879.31;;;1.22
81399;BMP280;70853;50.074;10.224;2023-12-07T04:16:05;98892.47;;;1.22
81399;BMP280;70853;50.074;10.224;2023-12-07T04:18:31;98893.63;;;1.21
81399;BMP280;70853;50.074;10.224;2023-12-07T04:20:56;98892.75;;;1.24
81399;BMP280;70853;50.074;10.224;2023-12-07T04:23:22;98892.88;;;1.30
81399;BMP280;70853;50.074;10.224;2023-12-07T04:25:47;98881.47;;;1.33
81399;BMP280;70853;50.074;10.224;2023-12-07T04:28:13;98887.28;;;1.04
81399;BMP280;70853;50.074;10.224;2023-12-07T04:30:38;98891.22;;;1.09
81399;BMP280;70853;50.074;10.224;2023-12-07T04:33:04;98889.31;;;1.09
81399;BMP280;70853;50.074;10.224;2023-12-07T04:35:32;98896.13;;;1.16
81399;BMP280;70853;50.074;10.224;2023-12-07T04:37:58;98893.94;;;1.14
81399;BMP280;70853;50.074;10.224;2023-12-07T04:40:26;98888.31;;;1.07
81399;BMP280;70853;50.074;10.224;2023-12-07T04:42:52;98896.19;;;1.07
81399;BMP280;70853;50.074;10.224;2023-12-07T04:45:17;98887.00;;;1.02
81399;BMP280;70853;50.074;10.224;2023-12-07T04:47:43;98886.75;;;0.91
81399;BMP280;70853;50.074;10.224;2023-12-07T04:50:08;98893.44;;;1.01
81399;BMP280;70853;50.074;10.224;2023-12-07T04:52:35;98893.75;;;0.94
81399;BMP280;70853;50.074;10.224;2023-12-07T04:55:01;98890.81;;;0.92
81399;BMP280;70853;50.074;10.224;2023-12-07T04:57:26;98882.09;;;0.86
81399;BMP280;70853;50.074;10.224;2023-12-07T04:59:52;98869.25;;;0.88
81399;BMP280;70853;50.074;10.224;2023-12-07T05:02:17;98885.88;;;0.85
81399;BMP280;70853;50.074;10.224;2023-12-07T05:04:43;98889.72;;;0.75
81399;BMP280;70853;50.074;10.224;2023-12-07T05:07:13;98891.91;;;0.67
81399;BMP280;70853;50.074;10.224;2023-12-07T05:09:39;98886.09;;;0.63
81399;BMP280;70853;50.074;10.224;2023-12-07T05:12:06;98885.06;;;0.60
81399;BMP280;70853;50.074;10.224;2023-12-07T05:14:32;98882.00;;;0.62
81399;BMP280;70853;50.074;10.224;2023-12-07T05:16:57;98886.09;;;0.63
81399;BMP280;70853;50.074;10.224;2023-12-07T05:19:24;98880.44;;;0.46
81399;BMP280;70853;50.074;10.224;2023-12-07T05:21:50;98869.25;;;0.27
81399;BMP280;70853;50.074;10.224;2023-12-07T05:24:16;98899.25;;;0.45
81399;BMP280;70853;50.074;10.224;2023-12-07T05:26:42;98893.44;;;0.41
81399;BMP280;70853;50.074;10.224;2023-12-07T05:29:08;98901.44;;;0.46
81399;BMP280;70853;50.074;10.224;2023-12-07T05:31:34;98910.19;;;0.43
81399;BMP280;70853;50.074;10.224;2023-12-07T05:34:00;98903.63;;;0.39
81399;BMP280;70853;50.074;10.224;2023-12-07T05:36:26;98893.06;;;0.24
81399;BMP280;70853;50.074;10.224;2023-12-07T05:38:51;98904.50;;;0.35
81399;BMP280;70853;50.074;10.224;2023-12-07T05:41:17;98903.78;;;0.35
81399;BMP280;70853;50.074;10.224;2023-12-07T05:43:43;98906.69;;;0.37
81399;BMP280;70853;50.074;10.224;2023-12-07T05:46:08;98907.75;;;0.30
81399;BMP280;70853;50.074;10.224;2023-12-07T05:48:34;98910.53;;;0.27
81399;BMP280;70853;50.074;10.224;2023-12-07T05:51:01;98917.69;;;0.17
81399;BMP280;70853;50.074;10.224;2023-12-07T05:53:27;98918.25;;;0.21
81399;BMP280;70853;50.074;10.224;2023-12-07T05:55:53;98918.25;;;0.21
81399;BMP280;70853;50.074;10.224;2023-12-07T05:58:19;98905.56;;;0.11
81399;BMP280;70853;50.074;10.224;2023-12-07T06:00:45;98921.31;;;0.20
81399;BMP280;70853;50.074;10.224;2023-12-07T06:03:13;98909.06;;;0.17
81399;BMP280;70853;50.074;10.224;2023-12-07T06:05:38;98901.22;;;0.17
81399;BMP280;70853;50.074;10.224;2023-12-07T06:08:05;98900.47;;;0.07
81399;BMP280;70853;50.074;10.224;2023-12-07T06:10:30;98914.91;;;0.12
81399;BMP280;70853;50.074;10.224;2023-12-07T06:12:57;98903.09;;;0.16
81399;BMP280;70853;50.074;10.224;2023-12-07T06:15:23;98915.94;;;0.14
81399;BMP280;70853;50.074;10.224;2023-12-07T06:17:49;98917.38;;;0.15
81399;BMP280;70853;50.074;10.224;2023-12-07T06:20:15;98897.44;;;-0.01
81399;BMP280;70853;50.074;10.224;2023-12-07T06:22:41;98918.38;;;0.09
81399;BMP280;70853;50.074;10.224;2023-12-07T06:25:07;98913.72;;;0.04
81399;BMP280;70853;50.074;10.224;2023-12-07T06:27:35;98925.81;;;0.10
81399;BMP280;70853;50.074;10.224;2023-12-07T06:30:01;98914.59;;;0.00
81399;BMP280;70853;50.074;10.224;2023-12-07T06:32:26;98922.03;;;0.02
81399;BMP280;70853;50.074;10.224;2023-12-07T06:34:52;98926.72;;;-0.02
81399;BMP280;70853;50.074;10.224;2023-12-07T06:37:18;98911.06;;;-0.24
81399;BMP280;70853;50.074;10.224;2023-12-07T06:39:45;98921.28;;;-0.17
81399;BMP280;70853;50.074;10.224;2023-12-07T06:42:11;98937.34;;;-0.06
81399;BMP280;70853;50.074;10.224;2023-12-07T06:44:36;98939.22;;;-0.06
81399;BMP280;70853;50.074;10.224;2023-12-07T06:47:02;98934.41;;;-0.08
81399;BMP280;70853;50.074;10.224;2023-12-07T06:49:30;98938.78;;;-0.05
81399;BMP280;70853;50.074;10.224;2023-12-07T06:51:56;98949.41;;;-0.08
81399;BMP280;70853;50.074;10.224;2023-12-07T06:54:21;98952.78;;;-0.08
81399;BMP280;70853;50.074;10.224;2023-12-07T06:56:47;98954.81;;;-0.12
81399;BMP280;70853;50.074;10.224;2023-12-07T06:59:13;98959.19;;;-0.09
81399;BMP280;70853;50.074;10.224;2023-12-07T07:01:39;98957.28;;;-0.08
81399;BMP280;70853;50.074;10.224;2023-12-07T07:04:05;98961.50;;;-0.11
81399;BMP280;70853;50.074;10.224;2023-12-07T07:06:30;98959.16;;;-0.18
81399;BMP280;70853;50.074;10.224;2023-12-07T07:08:56;98944.59;;;-0.19
81399;BMP280;70853;50.074;10.224;2023-12-07T07:11:22;98956.13;;;-0.07
81399;BMP280;70853;50.074;10.224;2023-12-07T07:13:47;98963.56;;;-0.06
81399;BMP280;70853;50.074;10.224;2023-12-07T07:16:13;98967.03;;;0.00
81399;BMP280;70853;50.074;10.224;2023-12-07T07:18:40;98939.06;;;-0.12
81399;BMP280;70853;50.074;10.224;2023-12-07T07:21:06;98968.22;;;0.09
81399;BMP280;70853;50.074;10.224;2023-12-07T07:23:32;98959.50;;;0.12
81399;BMP280;70853;50.074;10.224;2023-12-07T07:25:57;98969.69;;;0.10
81399;BMP280;70853;50.074;10.224;2023-12-07T07:28:23;98973.34;;;0.12
81399;BMP280;70853;50.074;10.224;2023-12-07T07:30:48;98965.59;;;-0.01
81399;BMP280;70853;50.074;10.224;2023-12-07T07:33:14;98972.00;;;-0.02
81399;BMP280;70853;50.074;10.224;2023-12-07T07:35:39;98975.50;;;0.05
81399;BMP280;70853;50.074;10.224;2023-12-07T07:38:05;98963.25;;;0.02
81399;BMP280;70853;50.074;10.224;2023-12-07T07:40:30;98966.34;;;0.00
81399;BMP280;70853;50.074;10.224;2023-12-07T07:42:56;98945.63;;;0.02
81399;BMP280;70853;50.074;10.224;2023-12-07T07:45:22;98973.47;;;0.09
81399;BMP280;70853;50.074;10.224;2023-12-07T07:47:50;98967.28;;;-0.25
81399;BMP280;70853;50.074;10.224;2023-12-07T07:50:15;98987.63;;;-0.38
81399;BMP280;70853;50.074;10.224;2023-12-07T07:52:42;98991.50;;;-0.12
81399;BMP280;70853;50.074;10.224;2023-12-07T07:55:07;98990.94;;;0.03
81399;BMP280;70853;50.074;10.224;2023-12-07T07:57:33;98992.84;;;0.11
81399;BMP280;70853;50.074;10.224;2023-12-07T07:59:58;99001.63;;;0.17
81399;BMP280;70853;50.074;10.224;2023-12-07T08:02:24;98992.13;;;0.29
81399;BMP280;70853;50.074;10.224;2023-12-07T08:04:50;98993.56;;;-0.07
81399;BMP280;70853;50.074;10.224;2023-12-07T08:07:17;99000.88;;;-0.02
81399;BMP280;70853;50.074;10.224;2023-12-07T08:09:43;98994.41;;;-0.19
81399;BMP280;70853;50.074;10.224;2023-12-07T08:12:08;98991.94;;;-0.13
81399;BMP280;70853;50.074;10.224;2023-12-07T08:14:37;98999.34;;;-0.21
81399;BMP280;70853;50.074;10.224;2023-12-07T08:17:03;99016.00;;;-0.06
81399;BMP280;70853;50.074;10.224;2023-12-07T08:19:29;99004.78;;;-0.06
81399;BMP280;70853;50.074;10.224;2023-12-07T08:21:55;99016.16;;;0.09
81399;BMP280;70853;50.074;10.224;2023-12-07T08:24:20;99012.69;;;0.21
81399;BMP280;70853;50.074;10.224;2023-12-07T08:26:46;99013.84;;;0.29
81399;BMP280;70853;50.074;10.224;2023-12-07T08:29:11;99017.22;;;0.48
81399;BMP280;70853;50.074;10.224;2023-12-07T08:31:40;99022.16;;;0.46
81399;BMP280;70853;50.074;10.224;2023-12-07T08:34:06;99022.31;;;0.70
81399;BMP280;70853;50.074;10.224;2023-12-07T08:36:31;99019.50;;;0.83
81399;BMP280;70853;50.074;10.224;2023-12-07T08:38:57;99015.72;;;0.84
81399;BMP280;70853;50.074;10.224;2023-12-07T08:41:22;99028.72;;;0.96
81399;BMP280;70853;50.074;10.224;2023-12-07T08:43:49;99018.06;;;1.00
81399;BMP280;70853;50.074;10.224;2023-12-07T08:46:14;99011.09;;;0.79
81399;BMP280;70853;50.074;10.224;2023-12-07T08:48:40;99010.16;;;1.00
81399;BMP280;70853;50.074;10.224;2023-12-07T08:51:05;99010.56;;;1.17
81399;BMP280;70853;50.074;10.224;2023-12-07T08:53:34;99005.03;;;1.15
81399;BMP280;70853;50.074;10.224;2023-12-07T08:56:01;99011.28;;;1.26
81399;BMP280;70853;50.074;10.224;2023-12-07T08:58:27;99008.34;;;1.24
81399;BMP280;70853;50.074;10.224;2023-12-07T09:00:52;99010.06;;;1.36
81399;BMP280;70853;50.074;10.224;2023-12-07T09:03:18;99006.75;;;1.27
81399;BMP280;70853;50.074;10.224;2023-12-07T09:05:44;99005.72;;;1.33
81399;BMP280;70853;50.074;10.224;2023-12-07T09:08:09;99000.66;;;1.45
81399;BMP280;70853;50.074;10.224;2023-12-07T09:10:35;98990.00;;;1.48
81399;BMP280;70853;50.074;10.224;2023-12-07T09:13:01;99002.84;;;1.46
81399;BMP280;70853;50.074;10.224;2023-12-07T09:15:26;99003.28;;;1.45
81399;BMP280;70853;50.074;10.224;2023-12-07T09:17:52;99012.63;;;1.46
81399;BMP280;70853;50.074;10.224;2023-12-07T09:20:18;99006.34;;;1.52
81399;BMP280;70853;50.074;10.224;2023-12-07T09:22:44;99008.81;;;1.56
81399;BMP280;70853;50.074;10.224;2023-12-07T09:25:11;99001.09;;;1.52
81399;BMP280;70853;50.074;10.224;2023-12-07T09:27:38;98998.25;;;1.65
81399;BMP280;70853;50.074;10.224;2023-12-07T09:30:08;99003.41;;;1.59
81399;BMP280;70853;50.074;10.224;2023-12-07T09:32:37;98999.47;;;1.55
81399;BMP280;70853;50.074;10.224;2023-12-07T09:35:04;98998.44;;;1.52
81399;BMP280;70853;50.074;10.224;2023-12-07T09:37:31;98992.00;;;1.62
81399;BMP280;70853;50.074;10.224;2023-12-07T09:40:00;99003.19;;;1.72
81399;BMP280;70853;50.074;10.224;2023-12-07T09:42:26;98994.06;;;1.58
81399;BMP280;70853;50.074;10.224;2023-12-07T09:44:52;99006.69;;;1.69
81399;BMP280;70853;50.074;10.224;2023-12-07T09:47:18;99001.78;;;1.62
81399;BMP280;70853;50.074;10.224;2023-12-07T09:49:44;99002.94;;;1.61
81399;BMP280;70853;50.074;10.224;2023-12-07T09:52:10;98994.25;;;1.46
81399;BMP280;70853;50.074;10.224;2023-12-07T09:54:40;98988.31;;;1.36
81399;BMP280;70853;50.074;10.224;2023-12-07T09:57:06;99001.78;;;1.62
81399;BMP280;70853;50.074;10.224;2023-12-07T09:59:37;98981.91;;;1.61
81399;BMP280;70853;50.074;10.224;2023-12-07T10:02:04;98991.50;;;1.73
81399;BMP280;70853;50.074;10.224;2023-12-07T10:04:29;98999.44;;;1.64
81399;BMP280;70853;50.074;10.224;2023-12-07T10:06:56;98994.66;;;1.53
81399;BMP280;70853;50.074;10.224;2023-12-07T10:09:21;98981.94;;;1.52
81399;BMP280;70853;50.074;10.224;2023-12-07T10:11:47;98983.41;;;1.53
81399;BMP280;70853;50.074;10.224;2023-12-07T10:14:13;98989.38;;;1.62
81399;BMP280;70853;50.074;10.224;2023-12-07T10:16:52;98979.63;;;1.78
81399;BMP280;70853;50.074;10.224;2023-12-07T10:19:17;98981.34;;;1.57
81399;BMP280;70853;50.074;10.224;2023-12-07T10:21:47;98981.06;;;1.55
81399;BMP280;70853;50.074;10.224;2023-12-07T10:24:15;98990.09;;;1.63
81399;BMP280;70853;50.074;10.224;2023-12-07T10:26:41;98983.53;;;1.58
81399;BMP280;70853;50.074;10.224;2023-12-07T10:29:08;98982.88;;;1.72
81399;BMP280;70853;50.074;10.224;2023-12-07T10:31:34;98972.19;;;1.76
81399;BMP280;70853;50.074;10.224;2023-12-07T10:33:59;98972.69;;;1.65
81399;BMP280;70853;50.074;10.224;2023-12-07T10:36:26;98971.63;;;1.72
81399;BMP280;70853;50.074;10.224;2023-12-07T10:38:53;98974.09;;;1.76
81399;BMP280;70853;50.074;10.224;2023-12-07T10:41:20;98973.69;;;1.68
81399;BMP280;70853;50.074;10.224;2023-12-07T10:43:49;98978.94;;;1.68
81399;BMP280;70853;50.074;10.224;2023-12-07T10:46:20;98968.72;;;1.70
81399;BMP280;70853;50.074;10.224;2023-12-07T10:48:46;98977.78;;;1.69
81399;BMP280;70853;50.074;10.224;2023-12-07T10:51:42;98974.53;;;1.74
81399;BMP280;70853;50.074;10.224;2023-12-07T10:54:14;98971.19;;;1.73
81399;BMP280;70853;50.074;10.224;2023-12-07T10:56:45;98951.69;;;1.56
81399;BMP280;70853;50.074;10.224;2023-12-07T10:59:11;98958.25;;;1.61
81399;BMP280;70853;50.074;10.224;2023-12-07T11:01:45;98959.38;;;1.69
81399;BMP280;70853;50.074;10.224;2023-12-07T11:04:13;98956.22;;;1.56
81399;BMP280;70853;50.074;10.224;2023-12-07T11:06:48;98958.69;;;1.59
81399;BMP280;70853;50.074;10.224;2023-12-07T11:09:22;98960.59;;;1.59
81399;BMP280;70853;50.074;10.224;2023-12-07T11:12:01;98954.91;;;1.60
81399;BMP280;70853;50.074;10.224;2023-12-07T11:14:28;98956.06;;;1.59
81399;BMP280;70853;50.074;10.224;2023-12-07T11:16:56;98955.00;;;1.66
81399;BMP280;70853;50.074;10.224;2023-12-07T11:22:06;98940.97;;;1.69
81399;BMP280;70853;50.074;10.224;2023-12-07T11:24:32;98940.06;;;1.72
81399;BMP280;70853;50.074;10.224;2023-12-07T11:26:58;98932.78;;;1.67
81399;BMP280;70853;50.074;10.224;2023-12-07T11:29:25;98923.69;;;1.77
81399;BMP280;70853;50.074;10.224;2023-12-07T11:31:51;98931.84;;;1.79
81399;BMP280;70853;50.074;10.224;2023-12-07T11:34:42;98932.13;;;1.81
81399;BMP280;70853;50.074;10.224;2023-12-07T11:37:09;98924.81;;;1.85
81399;BMP280;70853;50.074;10.224;2023-12-07T11:39:36;98917.06;;;1.82
81399;BMP280;70853;50.074;10.224;2023-12-07T11:42:19;98913.81;;;1.87
81399;BMP280;70853;50.074;10.224;2023-12-07T11:44:48;98899.03;;;1.89
81399;BMP280;70853;50.074;10.224;2023-12-07T11:47:18;98908.53;;;1.87
81399;BMP280;70853;50.074;10.224;2023-12-07T11:49:45;98913.00;;;1.81
81399;BMP280;70853;50.074;10.224;2023-12-07T11:52:19;98910.69;;;1.73
81399;BMP280;70853;50.074;10.224;2023-12-07T11:54:45;98908.34;;;1.52
81399;BMP280;70853;50.074;10.224;2023-12-07T11:57:13;98906.56;;;1.58
81399;BMP280;70853;50.074;10.224;2023-12-07T11:59:38;98910.25;;;1.51
81399;BMP280;70853;50.074;10.224;2023-12-07T12:02:04;98909.34;;;1.54
81399;BMP280;70853;50.074;10.224;2023-12-07T12:04:29;98900.13;;;1.59
81399;BMP280;70853;50.074;10.224;2023-12-07T12:06:55;98910.25;;;1.75
81399;BMP280;70853;50.074;10.224;2023-12-07T12:09:21;98909.34;;;1.78
81399;BMP280;70853;50.074;10.224;2023-12-07T12:11:47;98900.13;;;1.83
81399;BMP280;70853;50.074;10.224;2023-12-07T12:14:14;98896.75;;;1.82
81399;BMP280;70853;50.074;10.224;2023-12-07T12:16:42;98883.84;;;1.69
81399;BMP280;70853;50.074;10.224;2023-12-07T12:19:10;98890.09;;;1.72
81399;BMP280;70853;50.074;10.224;2023-12-07T12:21:37;98874.56;;;1.59
81399;BMP280;70853;50.074;10.224;2023-12-07T12:24:06;98886.91;;;1.68
81399;BMP280;70853;50.074;10.224;2023-12-07T12:26:34;98878.13;;;1.71
81399;BMP280;70853;50.074;10.224;2023-12-07T12:29:03;98891.63;;;1.64
81399;BMP280;70853;50.074;10.224;2023-12-07T12:31:29;98880.09;;;1.61
81399;BMP280;70853;50.074;10.224;2023-12-07T12:33:55;98878.47;;;1.40
81399;BMP280;70853;50.074;10.224;2023-12-07T12:36:21;98877.94;;;1.36
81399;BMP280;70853;50.074;10.224;2023-12-07T12:38:51;98861.91;;;1.49
81399;BMP280;70853;50.074;10.224;2023-12-07T12:41:20;98871.31;;;1.64
81399;BMP280;70853;50.074;10.224;2023-12-07T12:43:46;98861.88;;;1.58
81399;BMP280;70853;50.074;10.224;2023-12-07T12:46:13;98865.25;;;1.73
81399;BMP280;70853;50.074;10.224;2023-12-07T12:48:59;98855.28;;;1.62
81399;BMP280;70853;50.074;10.224;2023-12-07T12:51:29;98842.56;;;1.61
81399;BMP280;70853;50.074;10.224;2023-12-07T12:54:00;98837.53;;;1.48
81399;BMP280;70853;50.074;10.224;2023-12-07T12:56:27;98852.53;;;1.57
81399;BMP280;70853;50.074;10.224;2023-12-07T12:58:53;98849.56;;;1.64
81399;BMP280;70853;50.074;10.224;2023-12-07T13:01:22;98842.59;;;1.76
81399;BMP280;70853;50.074;10.224;2023-12-07T13:03:48;98834.41;;;1.59
81399;BMP280;70853;50.074;10.224;2023-12-07T13:06:14;98833.97;;;1.75
81399;BMP280;70853;50.074;10.224;2023-12-07T13:08:44;98830.75;;;1.80
81399;BMP280;70853;50.074;10.224;2023-12-07T13:11:17;98828.91;;;1.71
81399;BMP280;70853;50.074;10.224;2023-12-07T13:13:44;98823.63;;;1.71
81399;BMP280;70853;50.074;10.224;2023-12-07T13:16:10;98825.84;;;1.88
81399;BMP280;70853;50.074;10.224;2023-12-07T13:18:37;98816.19;;;1.70
81399;BMP280;70853;50.074;10.224;2023-12-07T13:21:03;98816.94;;;1.47
81399;BMP280;70853;50.074;10.224;2023-12-07T13:23:31;98824.66;;;1.50
81399;BMP280;70853;50.074;10.224;2023-12-07T13:25:56;98832.06;;;1.61
81399;BMP280;70853;50.074;10.224;2023-12-07T13:28:22;98819.41;;;1.50
81399;BMP280;70853;50.074;10.224;2023-12-07T13:30:48;98817.41;;;1.45
81399;BMP280;70853;50.074;10.224;2023-12-07T13:33:14;98817.56;;;1.42
81399;BMP280;70853;50.074;10.224;2023-12-07T13:35:40;98827.13;;;1.54
81399;BMP280;70853;50.074;10.224;2023-12-07T13:38:05;98821.53;;;1.61
81399;BMP280;70853;50.074;10.224;2023-12-07T13:40:31;98818.72;;;1.26
81399;BMP280;70853;50.074;10.224;2023-12-07T13:42:57;98826.00;;;1.46
81399;BMP280;70853;50.074;10.224;2023-12-07T13:45:22;98815.94;;;1.29
81399;BMP280;70853;50.074;10.224;2023-12-07T13:47:47;98808.72;;;1.15
81399;BMP280;70853;50.074;10.224;2023-12-07T13:50:15;98820.84;;;1.36
81399;BMP280;70853;50.074;10.224;2023-12-07T13:52:40;98813.47;;;1.41
81399;BMP280;70853;50.074;10.224;2023-12-07T13:55:07;98810.53;;;1.48
81399;BMP280;70853;50.074;10.224;2023-12-07T13:57:33;98813.44;;;1.50
81399;BMP280;70853;50.074;10.224;2023-12-07T13:59:58;98812.25;;;1.51
81399;BMP280;70853;50.074;10.224;2023-12-07T14:02:24;98794.75;;;1.33
81399;BMP280;70853;50.074;10.224;2023-12-07T14:04:49;98809.84;;;1.38
81399;BMP280;70853;50.074;10.224;2023-12-07T14:07:17;98802.56;;;1.18